sensor_id;sensor_type;location;lat;lon;timestamp;pressure;altitude;pressure_sealevel;temperature;humidity
43683;BME280;29285;52.128;21.060;2023-09-19T00:00:32;99707.68;;;20.07;100.00
43683;BME280;29285;52.128;21.060;2023-09-19T00:05:54;99701.48;;;19.99;100.00
43683;BME280;29285;52.128;21.060;2023-09-19T00:10:56;99699.38;;;19.93;100.00
43683;BME280;29285;52.128;21.060;2023-09-19T00:16:10;99696.86;;;19.86;100.00
43683;BME280;29285;52.128;21.060;2023-09-19T00:21:11;99693.83;;;19.84;100.00
43683;BME280;29285;52.128;21.060;2023-09-19T00:26:12;99693.42;;;19.82;100.00
43683;BME280;29285;52.128;21.060;2023-09-19T00:31:13;99694.88;;;19.84;100.00
43683;BME280;29285;52.128;21.060;2023-09-19T00:36:14;99692.69;;;19.77;100.00
43683;BME280;29285;52.128;21.060;2023-09-19T00:41:15;99682.96;;;19.78;100.00
43683;BME280;29285;52.128;21.060;2023-09-19T00:46:17;99677.27;;;19.76;100.00
43683;BME280;29285;52.128;21.060;2023-09-19T00:51:20;99676.84;;;19.77;100.00
43683;BME280;29285;52.128;21.060;2023-09-19T00:56:21;99676.58;;;19.73;100.00
43683;BME280;29285;52.128;21.060;2023-09-19T01:01:24;99674.68;;;19.75;100.00
43683;BME280;29285;52.128;21.060;2023-09-19T01:06:25;99668.24;;;19.74;100.00
43683;BME280;29285;52.128;21.060;2023-09-19T01:11:35;99664.45;;;19.73;100.00
43683;BME280;29285;52.128;21.060;2023-09-19T01:17:14;99658.20;;;19.74;100.00
43683;BME280;29285;52.128;21.060;2023-09-19T01:22:23;99654.58;;;19.70;100.00
43683;BME280;29285;52.128;21.060;2023-09-19T01:32:44;99635.43;;;19.75;100.00
43683;BME280;29285;52.128;21.060;2023-09-19T01:37:47;99632.48;;;19.77;100.00
43683;BME280;29285;52.128;21.060;2023-09-19T01:43:12;99630.91;;;19.77;100.00
43683;BME280;29285;52.128;21.060;2023-09-19T01:54:04;99618.85;;;19.76;100.00
43683;BME280;29285;52.128;21.060;2023-09-19T01:59:13;99615.24;;;19.72;100.00
43683;BME280;29285;52.128;21.060;2023-09-19T02:04:16;99614.80;;;19.62;100.00
43683;BME280;29285;52.128;21.060;2023-09-19T02:09:17;99618.96;;;19.63;100.00
43683;BME280;29285;52.128;21.060;2023-09-19T02:14:19;99621.21;;;19.64;100.00
43683;BME280;29285;52.128;21.060;2023-09-19T02:19:20;99617.08;;;19.60;100.00
43683;BME280;29285;52.128;21.060;2023-09-19T02:24:22;99608.05;;;19.53;100.00
43683;BME280;29285;52.128;21.060;2023-09-19T02:29:27;99601.52;;;19.50;100.00
43683;BME280;29285;52.128;21.060;2023-09-19T02:34:29;99590.45;;;19.52;100.00
43683;BME280;29285;52.128;21.060;2023-09-19T02:39:31;99587.53;;;19.57;100.00
43683;BME280;29285;52.128;21.060;2023-09-19T02:44:32;99591.56;;;19.54;100.00
43683;BME280;29285;52.128;21.060;2023-09-19T02:49:34;99587.35;;;19.49;100.00
43683;BME280;29285;52.128;21.060;2023-09-19T02:54:35;99592.32;;;19.37;100.00
43683;BME280;29285;52.128;21.060;2023-09-19T02:59:36;99578.41;;;19.27;100.00
43683;BME280;29285;52.128;21.060;2023-09-19T03:04:37;99571.00;;;19.24;100.00
43683;BME280;29285;52.128;21.060;2023-09-19T03:09:38;99560.01;;;19.26;100.00
43683;BME280;29285;52.128;21.060;2023-09-19T03:14:40;99551.60;;;19.30;100.00
43683;BME280;29285;52.128;21.060;2023-09-19T03:19:41;99553.80;;;19.29;100.00
43683;BME280;29285;52.128;21.060;2023-09-19T03:24:42;99555.55;;;19.24;100.00
43683;BME280;29285;52.128;21.060;2023-09-19T03:29:44;99557.84;;;19.21;100.00
43683;BME280;29285;52.128;21.060;2023-09-19T03:34:45;99551.16;;;19.15;100.00
43683;BME280;29285;52.128;21.060;2023-09-19T03:39:49;99552.05;;;19.04;100.00
43683;BME280;29285;52.128;21.060;2023-09-19T03:44:50;99548.84;;;18.96;100.00
43683;BME280;29285;52.128;21.060;2023-09-19T03:49:52;99550.08;;;18.90;100.00
43683;BME280;29285;52.128;21.060;2023-09-19T03:54:53;99546.27;;;18.86;100.00
43683;BME280;29285;52.128;21.060;2023-09-19T03:59:55;99547.37;;;18.91;100.00
43683;BME280;29285;52.128;21.060;2023-09-19T04:04:56;99546.61;;;18.89;100.00
43683;BME280;29285;52.128;21.060;2023-09-19T04:09:57;99537.66;;;18.84;100.00
43683;BME280;29285;52.128;21.060;2023-09-19T04:14:58;99528.67;;;18.87;100.00
43683;BME280;29285;52.128;21.060;2023-09-19T04:19:59;99518.77;;;18.94;100.00
43683;BME280;29285;52.128;21.060;2023-09-19T04:25:00;99517.76;;;18.96;100.00
43683;BME280;29285;52.128;21.060;2023-09-19T04:30:01;99519.52;;;18.93;100.00
43683;BME280;29285;52.128;21.060;2023-09-19T04:35:08;99513.30;;;18.85;100.00
43683;BME280;29285;52.128;21.060;2023-09-19T04:40:10;99501.91;;;18.88;100.00
43683;BME280;29285;52.128;21.060;2023-09-19T04:45:20;99497.23;;;18.92;100.00
43683;BME280;29285;52.128;21.060;2023-09-19T04:50:21;99501.96;;;18.87;100.00
43683;BME280;29285;52.128;21.060;2023-09-19T04:55:23;99498.67;;;18.89;100.00
43683;BME280;29285;52.128;21.060;2023-09-19T05:00:24;99497.38;;;18.84;100.00
43683;BME280;29285;52.128;21.060;2023-09-19T05:05:28;99498.65;;;18.81;100.00
43683;BME280;29285;52.128;21.060;2023-09-19T05:10:29;99503.80;;;18.77;100.00
43683;BME280;29285;52.128;21.060;2023-09-19T05:15:30;99500.58;;;18.76;100.00
43683;BME280;29285;52.128;21.060;2023-09-19T05:20:32;99496.39;;;18.78;100.00
43683;BME280;29285;52.128;21.060;2023-09-19T05:25:35;99496.25;;;18.74;100.00
43683;BME280;29285;52.128;21.060;2023-09-19T05:30:40;99489.59;;;18.80;100.00
43683;BME280;29285;52.128;21.060;2023-09-19T05:35:42;99494.70;;;18.77;100.00
43683;BME280;29285;52.128;21.060;2023-09-19T05:40:42;99495.71;;;18.72;100.00
43683;BME280;29285;52.128;21.060;2023-09-19T05:45:46;99489.03;;;18.69;100.00
43683;BME280;29285;52.128;21.060;2023-09-19T05:50:46;99488.67;;;18.60;100.00
43683;BME280;29285;52.128;21.060;2023-09-19T05:55:49;99485.66;;;18.58;100.00
43683;BME280;29285;52.128;21.060;2023-09-19T06:00:50;99475.43;;;18.59;100.00
43683;BME280;29285;52.128;21.060;2023-09-19T06:05:51;99472.97;;;18.59;100.00
43683;BME280;29285;52.128;21.060;2023-09-19T06:10:53;99486.41;;;18.66;100.00
43683;BME280;29285;52.128;21.060;2023-09-19T06:15:55;99481.70;;;18.71;100.00
43683;BME280;29285;52.128;21.060;2023-09-19T06:20:57;99477.24;;;18.78;100.00
43683;BME280;29285;52.128;21.060;2023-09-19T06:25:59;99481.70;;;18.85;100.00
43683;BME280;29285;52.128;21.060;2023-09-19T06:31:02;99491.27;;;18.95;100.00
43683;BME280;29285;52.128;21.060;2023-09-19T06:36:04;99506.89;;;18.98;100.00
43683;BME280;29285;52.128;21.060;2023-09-19T06:41:05;99527.45;;;18.98;100.00
43683;BME280;29285;52.128;21.060;2023-09-19T06:46:08;99540.43;;;19.01;100.00
43683;BME280;29285;52.128;21.060;2023-09-19T06:51:09;99539.34;;;19.02;100.00
43683;BME280;29285;52.128;21.060;2023-09-19T06:56:10;99538.11;;;18.94;100.00
43683;BME280;29285;52.128;21.060;2023-09-19T07:01:11;99536.13;;;18.89;100.00
43683;BME280;29285;52.128;21.060;2023-09-19T07:06:16;99528.05;;;18.88;100.00
43683;BME280;29285;52.128;21.060;2023-09-19T07:11:17;99528.20;;;18.94;100.00
43683;BME280;29285;52.128;21.060;2023-09-19T07:16:18;99534.14;;;19.01;100.00
43683;BME280;29285;52.128;21.060;2023-09-19T07:21:29;99544.34;;;19.15;100.00
43683;BME280;29285;52.128;21.060;2023-09-19T07:26:30;99555.79;;;19.31;100.00
43683;BME280;29285;52.128;21.060;2023-09-19T07:31:32;99564.45;;;19.49;100.00
43683;BME280;29285;52.128;21.060;2023-09-19T07:36:34;99562.30;;;19.61;100.00
43683;BME280;29285;52.128;21.060;2023-09-19T07:41:35;99565.01;;;19.65;100.00
43683;BME280;29285;52.128;21.060;2023-09-19T07:46:36;99565.86;;;19.77;100.00
43683;BME280;29285;52.128;21.060;2023-09-19T12:41:04;99740.15;;;19.86;100.00
43683;BME280;29285;52.128;21.060;2023-09-19T12:46:07;99743.86;;;19.89;100.00
43683;BME280;29285;52.128;21.060;2023-09-19T12:51:12;99746.58;;;19.87;100.00
43683;BME280;29285;52.128;21.060;2023-09-19T12:56:14;99737.18;;;19.86;100.00
43683;BME280;29285;52.128;21.060;2023-09-19T13:01:16;99728.20;;;19.94;100.00
43683;BME280;29285;52.128;21.060;2023-09-19T13:06:35;99727.55;;;19.96;100.00
43683;BME280;29285;52.128;21.060;2023-09-19T13:11:39;99724.92;;;19.99;100.00
43683;BME280;29285;52.128;21.060;2023-09-19T13:22:04;99729.50;;;20.02;100.00
43683;BME280;29285;52.128;21.060;2023-09-19T13:27:08;99728.38;;;20.00;100.00
43683;BME280;29285;52.128;21.060;2023-09-19T13:32:09;99730.01;;;20.05;100.00
43683;BME280;29285;52.128;21.060;2023-09-19T13:37:12;99738.88;;;20.09;100.00
43683;BME280;29285;52.128;21.060;2023-09-19T13:42:14;99740.08;;;20.15;100.00
43683;BME280;29285;52.128;21.060;2023-09-19T13:47:15;99745.60;;;20.14;100.00
43683;BME280;29285;52.128;21.060;2023-09-19T13:52:17;99746.36;;;20.13;100.00
43683;BME280;29285;52.128;21.060;2023-09-19T13:57:18;99746.11;;;20.12;100.00
43683;BME280;29285;52.128;21.060;2023-09-19T14:02:19;99744.70;;;20.09;100.00
43683;BME280;29285;52.128;21.060;2023-09-19T14:07:23;99746.98;;;20.12;100.00
43683;BME280;29285;52.128;21.060;2023-09-19T14:12:30;99739.69;;;20.18;100.00
43683;BME280;29285;52.128;21.060;2023-09-19T14:17:31;99747.34;;;20.20;100.00
43683;BME280;29285;52.128;21.060;2023-09-19T14:22:32;99751.67;;;20.21;100.00
43683;BME280;29285;52.128;21.060;2023-09-19T14:27:34;99747.23;;;20.16;100.00
43683;BME280;29285;52.128;21.060;2023-09-19T14:32:35;99756.23;;;20.11;100.00
43683;BME280;29285;52.128;21.060;2023-09-19T14:37:36;99759.71;;;20.08;100.00
43683;BME280;29285;52.128;21.060;2023-09-19T14:42:39;99759.62;;;20.07;100.00
43683;BME280;29285;52.128;21.060;2023-09-19T14:47:40;99763.08;;;20.02;100.00
43683;BME280;29285;52.128;21.060;2023-09-19T14:52:41;99762.36;;;19.94;100.00
43683;BME280;29285;52.128;21.060;2023-09-19T14:57:42;99765.89;;;19.91;100.00
43683;BME280;29285;52.128;21.060;2023-09-19T15:02:46;99768.63;;;19.92;100.00
43683;BME280;29285;52.128;21.060;2023-09-19T15:07:50;99772.44;;;19.90;100.00
43683;BME280;29285;52.128;21.060;2023-09-19T15:12:51;99778.85;;;19.89;100.00
43683;BME280;29285;52.128;21.060;2023-09-19T15:17:52;99781.09;;;19.90;100.00
43683;BME280;29285;52.128;21.060;2023-09-19T15:22:54;99780.41;;;19.92;100.00
43683;BME280;29285;52.128;21.060;2023-09-19T15:27:55;99786.94;;;19.95;100.00
43683;BME280;29285;52.128;21.060;2023-09-19T15:32:57;99780.33;;;20.03;100.00
43683;BME280;29285;52.128;21.060;2023-09-19T15:37:58;99779.17;;;20.04;100.00
43683;BME280;29285;52.128;21.060;2023-09-19T15:43:01;99778.95;;;20.05;100.00
43683;BME280;29285;52.128;21.060;2023-09-19T15:48:02;99783.35;;;19.99;100.00
43683;BME280;29285;52.128;21.060;2023-09-19T15:53:03;99792.94;;;19.98;100.00
43683;BME280;29285;52.128;21.060;2023-09-19T15:58:04;99792.04;;;19.98;100.00
43683;BME280;29285;52.128;21.060;2023-09-19T16:03:07;99802.22;;;19.92;100.00
43683;BME280;29285;52.128;21.060;2023-09-19T16:08:08;99809.91;;;19.90;100.00
43683;BME280;29285;52.128;21.060;2023-09-19T16:13:09;99812.56;;;19.91;100.00
43683;BME280;29285;52.128;21.060;2023-09-19T16:18:10;99821.30;;;19.89;100.00
43683;BME280;29285;52.128;21.060;2023-09-19T16:23:11;99826.06;;;19.85;100.00
43683;BME280;29285;52.128;21.060;2023-09-19T16:28:12;99832.88;;;19.81;100.00
43683;BME280;29285;52.128;21.060;2023-09-19T16:33:13;99834.16;;;19.74;100.00
43683;BME280;29285;52.128;21.060;2023-09-19T16:38:13;99837.98;;;19.69;100.00
43683;BME280;29285;52.128;21.060;2023-09-19T16:43:14;99838.50;;;19.64;100.00
43683;BME280;29285;52.128;21.060;2023-09-19T16:48:16;99840.39;;;19.56;100.00
43683;BME280;29285;52.128;21.060;2023-09-19T16:53:17;99844.89;;;19.48;100.00
43683;BME280;29285;52.128;21.060;2023-09-19T16:58:19;99849.94;;;19.37;100.00
43683;BME280;29285;52.128;21.060;2023-09-19T17:03:20;99856.48;;;19.28;100.00
43683;BME280;29285;52.128;21.060;2023-09-19T17:08:20;99858.36;;;19.23;100.00
43683;BME280;29285;52.128;21.060;2023-09-19T17:13:23;99864.55;;;19.16;100.00
43683;BME280;29285;52.128;21.060;2023-09-19T17:18:24;99869.45;;;19.08;100.00
43683;BME280;29285;52.128;21.060;2023-09-19T17:23:28;99872.08;;;19.01;100.00
43683;BME280;29285;52.128;21.060;2023-09-19T17:28:30;99875.73;;;19.02;100.00
43683;BME280;29285;52.128;21.060;2023-09-19T17:33:31;99879.00;;;19.03;100.00
43683;BME280;29285;52.128;21.060;2023-09-19T17:38:32;99884.89;;;19.02;100.00
43683;BME280;29285;52.128;21.060;2023-09-19T17:43:34;99887.82;;;18.96;100.00
43683;BME280;29285;52.128;21.060;2023-09-19T17:48:39;99900.79;;;18.95;100.00
43683;BME280;29285;52.128;21.060;2023-09-19T17:53:44;99911.59;;;18.96;100.00
43683;BME280;29285;52.128;21.060;2023-09-19T17:58:46;99917.77;;;18.95;100.00
43683;BME280;29285;52.128;21.060;2023-09-19T18:03:49;99923.30;;;18.90;100.00
43683;BME280;29285;52.128;21.060;2023-09-19T18:09:03;99932.01;;;18.89;100.00
43683;BME280;29285;52.128;21.060;2023-09-19T18:14:07;99933.22;;;18.89;100.00
43683;BME280;29285;52.128;21.060;2023-09-19T18:19:08;99939.90;;;18.89;100.00
43683;BME280;29285;52.128;21.060;2023-09-19T18:24:09;99948.00;;;18.83;100.00
43683;BME280;29285;52.128;21.060;2023-09-19T18:29:14;99949.56;;;18.74;100.00
43683;BME280;29285;52.128;21.060;2023-09-19T18:34:16;99951.50;;;18.70;100.00
43683;BME280;29285;52.128;21.060;2023-09-19T18:39:17;99959.52;;;18.65;100.00
43683;BME280;29285;52.128;21.060;2023-09-19T18:44:20;99961.68;;;18.58;100.00
43683;BME280;29285;52.128;21.060;2023-09-19T18:49:22;99966.93;;;18.52;100.00
43683;BME280;29285;52.128;21.060;2023-09-19T18:54:23;99971.54;;;18.48;100.00
43683;BME280;29285;52.128;21.060;2023-09-19T18:59:24;99974.08;;;18.36;100.00
43683;BME280;29285;52.128;21.060;2023-09-19T19:04:25;99982.21;;;18.32;100.00
43683;BME280;29285;52.128;21.060;2023-09-19T19:09:28;99984.66;;;18.32;100.00
43683;BME280;29285;52.128;21.060;2023-09-19T19:14:30;99990.88;;;18.34;100.00
43683;BME280;29285;52.128;21.060;2023-09-19T19:19:30;99990.41;;;18.33;100.00
43683;BME280;29285;52.128;21.060;2023-09-19T19:24:32;99991.01;;;18.35;100.00
43683;BME280;29285;52.128;21.060;2023-09-19T19:29:34;99993.52;;;18.31;100.00
43683;BME280;29285;52.128;21.060;2023-09-19T19:34:35;99995.81;;;18.24;100.00
43683;BME280;29285;52.128;21.060;2023-09-19T19:39:36;100002.17;;;18.17;100.00
43683;BME280;29285;52.128;21.060;2023-09-19T19:44:37;100000.09;;;18.09;100.00
43683;BME280;29285;52.128;21.060;2023-09-19T19:49:38;100000.33;;;18.04;100.00
43683;BME280;29285;52.128;21.060;2023-09-19T19:54:40;99998.54;;;17.95;100.00
43683;BME280;29285;52.128;21.060;2023-09-19T19:59:41;100000.86;;;17.87;100.00
43683;BME280;29285;52.128;21.060;2023-09-19T20:04:42;100008.48;;;17.82;100.00
43683;BME280;29285;52.128;21.060;2023-09-19T20:09:42;100010.71;;;17.79;100.00
43683;BME280;29285;52.128;21.060;2023-09-19T20:14:43;100014.35;;;17.74;100.00
43683;BME280;29285;52.128;21.060;2023-09-19T20:19:44;100015.52;;;17.71;100.00
43683;BME280;29285;52.128;21.060;2023-09-19T20:24:46;100013.44;;;17.68;100.00
43683;BME280;29285;52.128;21.060;2023-09-19T20:29:48;100013.18;;;17.55;100.00
43683;BME280;29285;52.128;21.060;2023-09-19T20:34:49;100015.73;;;17.50;100.00
43683;BME280;29285;52.128;21.060;2023-09-19T20:39:50;100019.03;;;17.39;100.00
43683;BME280;29285;52.128;21.060;2023-09-19T20:44:53;100026.06;;;17.28;100.00
43683;BME280;29285;52.128;21.060;2023-09-19T20:49:58;100031.00;;;17.17;100.00
43683;BME280;29285;52.128;21.060;2023-09-19T20:55:00;100032.85;;;16.99;100.00
43683;BME280;29285;52.128;21.060;2023-09-19T21:00:01;100041.11;;;16.91;100.00
43683;BME280;29285;52.128;21.060;2023-09-19T21:05:04;100042.30;;;16.85;100.00
43683;BME280;29285;52.128;21.060;2023-09-19T21:10:06;100046.14;;;16.73;100.00
43683;BME280;29285;52.128;21.060;2023-09-19T21:15:07;100047.73;;;16.73;100.00
43683;BME280;29285;52.128;21.060;2023-09-19T21:20:11;100053.23;;;16.75;100.00
43683;BME280;29285;52.128;21.060;2023-09-19T21:25:19;100057.77;;;16.71;100.00
43683;BME280;29285;52.128;21.060;2023-09-19T21:30:20;100061.92;;;16.61;100.00
43683;BME280;29285;52.128;21.060;2023-09-19T21:35:21;100062.25;;;16.54;100.00
43683;BME280;29285;52.128;21.060;2023-09-19T21:40:23;100064.23;;;16.45;100.00
43683;BME280;29285;52.128;21.060;2023-09-19T21:45:24;100064.45;;;16.48;100.00
43683;BME280;29285;52.128;21.060;2023-09-19T21:50:26;100061.07;;;16.37;100.00
43683;BME280;29285;52.128;21.060;2023-09-19T21:55:28;100060.27;;;16.23;100.00
43683;BME280;29285;52.128;21.060;2023-09-19T22:00:30;100055.66;;;16.17;100.00
43683;BME280;29285;52.128;21.060;2023-09-19T22:05:36;100055.21;;;16.23;100.00
43683;BME280;29285;52.128;21.060;2023-09-19T22:10:47;100052.75;;;16.19;100.00
43683;BME280;29285;52.128;21.060;2023-09-19T22:15:49;100055.36;;;16.12;100.00
43683;BME280;29285;52.128;21.060;2023-09-19T22:20:50;100058.59;;;16.01;100.00
43683;BME280;29285;52.128;21.060;2023-09-19T22:25:54;100055.96;;;15.80;100.00
43683;BME280;29285;52.128;21.060;2023-09-19T22:30:55;100056.61;;;15.68;100.00
43683;BME280;29285;52.128;21.060;2023-09-19T22:35:57;100054.59;;;15.62;100.00
43683;BME280;29285;52.128;21.060;2023-09-19T22:40:58;100053.79;;;15.48;100.00
43683;BME280;29285;52.128;21.060;2023-09-19T22:46:04;100056.10;;;15.42;100.00
43683;BME280;29285;52.128;21.060;2023-09-19T22:51:09;100059.96;;;15.38;100.00
43683;BME280;29285;52.128;21.060;2023-09-19T22:56:13;100059.73;;;15.34;100.00
43683;BME280;29285;52.128;21.060;2023-09-19T23:01:16;100065.14;;;15.30;100.00
43683;BME280;29285;52.128;21.060;2023-09-19T23:06:41;100071.67;;;15.29;100.00
43683;BME280;29285;52.128;21.060;2023-09-19T23:11:44;100068.08;;;15.31;100.00
43683;BME280;29285;52.128;21.060;2023-09-19T23:16:46;100073.01;;;15.31;100.00
43683;BME280;29285;52.128;21.060;2023-09-19T23:21:58;100079.84;;;15.26;100.00
43683;BME280;29285;52.128;21.060;2023-09-19T23:27:10;100078.68;;;15.24;100.00
43683;BME280;29285;52.128;21.060;2023-09-19T23:32:19;100080.30;;;15.18;100.00
43683;BME280;29285;52.128;21.060;2023-09-19T23:37:22;100088.29;;;15.15;100.00
43683;BME280;29285;52.128;21.060;2023-09-19T23:42:23;100095.20;;;15.13;100.00
43683;BME280;29285;52.128;21.060;2023-09-19T23:47:24;100098.73;;;15.16;100.00
43683;BME280;29285;52.128;21.060;2023-09-19T23:52:27;100101.41;;;15.19;100.00
43683;BME280;29285;52.128;21.060;2023-09-19T23:57:28;100106.29;;;15.24;100.00
